createdAt,value
2023-04-22T04:04:11.074Z,99.16
2023-04-22T04:08:35.632Z,100.00
2023-04-22T04:12:47.181Z,100.00
2023-04-22T04:16:58.849Z,100.00
2023-04-22T04:21:13.629Z,100.00
2023-04-22T04:25:37.661Z,100.00
2023-04-22T04:29:52.630Z,100.00
2023-04-22T04:34:19.148Z,100.00
2023-04-22T04:38:31.636Z,100.00
2023-04-22T04:42:43.624Z,100.00
2023-04-22T04:47:02.070Z,100.00
2023-04-22T04:51:14.926Z,100.00
2023-04-22T04:55:34.332Z,100.00
2023-04-22T04:59:50.304Z,100.00
2023-04-22T05:04:03.022Z,100.00
2023-04-22T05:08:15.054Z,100.00
2023-04-22T05:12:28.721Z,100.00
2023-04-22T05:16:43.926Z,100.00
2023-04-22T05:20:55.533Z,100.00
2023-04-22T05:25:08.188Z,100.00
2023-04-22T05:29:19.940Z,100.00
2023-04-22T05:33:32.134Z,100.00
2023-04-22T05:37:44.208Z,100.00
2023-04-22T05:41:56.836Z,100.00
2023-04-22T05:46:08.589Z,100.00
2023-04-22T05:50:23.509Z,99.16
2023-04-22T05:54:43.362Z,98.91
2023-04-22T05:58:55.945Z,99.59
2023-04-22T06:03:09.295Z,98.18
2023-04-22T06:07:21.109Z,98.13
2023-04-22T06:11:33.313Z,97.43
2023-04-22T06:15:44.867Z,95.48
2023-04-22T06:19:56.423Z,83.58
2023-04-22T06:24:09.038Z,63.54
2023-04-22T06:28:21.076Z,51.06
2023-04-22T06:32:35.221Z,45.57
2023-04-22T06:36:47.393Z,37.79
2023-04-22T06:41:00.194Z,38.34
2023-04-22T06:45:16.378Z,34.96
2023-04-22T06:49:39.569Z,32.49
2023-04-22T06:54:05.952Z,35.04
2023-04-22T06:58:17.472Z,37.93
2023-04-22T07:02:29.274Z,39.72
2023-04-22T07:06:41.063Z,40.27
2023-04-22T07:10:52.780Z,43.02
2023-04-22T07:21:14.095Z,45.69
2023-04-22T07:25:25.702Z,46.16
2023-04-22T07:29:37.662Z,47.77
2023-04-22T07:33:49.483Z,47.85
2023-04-22T07:38:01.011Z,47.79
2023-04-22T07:42:12.878Z,48.65
2023-04-22T07:46:24.433Z,49.35
2023-04-22T07:50:38.135Z,49.26
2023-04-22T07:54:50.897Z,49.18
2023-04-22T07:59:02.964Z,48.38
2023-04-22T08:03:14.812Z,49.50
2023-04-22T08:07:33.141Z,50.26
2023-04-22T08:11:45.267Z,50.66
2023-04-22T08:15:56.829Z,49.08
2023-04-22T08:20:08.855Z,48.09
2023-04-22T08:24:20.833Z,48.11
2023-04-22T08:28:33.021Z,47.44
2023-04-22T08:32:44.743Z,47.41
2023-04-22T08:36:56.267Z,46.29
2023-04-22T08:41:08.439Z,48.21
2023-04-22T08:45:21.198Z,46.60
2023-04-22T08:49:35.127Z,48.12
2023-04-22T08:53:47.198Z,48.88
2023-04-22T08:58:00.850Z,49.49
2023-04-22T09:02:17.804Z,46.12
2023-04-22T09:06:32.282Z,43.80
2023-04-22T09:10:43.777Z,44.02
2023-04-22T09:14:57.010Z,43.06
2023-04-22T09:19:12.132Z,43.72
2023-04-22T09:23:24.015Z,44.16
2023-04-22T09:27:35.945Z,44.30
2023-04-22T09:31:50.814Z,44.62
2023-04-22T09:36:08.853Z,44.46
2023-04-22T09:40:20.769Z,45.74
2023-04-22T09:44:35.180Z,44.15
2023-04-22T09:48:47.341Z,43.20
2023-04-22T09:53:01.669Z,43.92
2023-04-22T09:57:15.191Z,43.53
2023-04-22T10:01:39.644Z,42.51
2023-04-22T10:05:51.274Z,43.46
2023-04-22T10:10:03.780Z,42.98
2023-04-22T10:14:15.404Z,43.34
2023-04-22T10:18:29.245Z,44.02
2023-04-22T10:22:42.839Z,43.67
2023-04-22T10:26:59.646Z,43.63
2023-04-22T10:31:22.139Z,43.43
2023-04-22T10:35:33.766Z,43.93
2023-04-22T10:40:07.772Z,44.67
2023-04-22T10:44:21.836Z,44.67
2023-04-22T10:48:50.950Z,45.29
2023-04-22T10:53:35.254Z,44.31
2023-04-22T10:57:48.201Z,45.02
2023-04-22T11:02:05.505Z,45.73
2023-04-22T11:06:19.292Z,45.79
2023-04-22T11:10:44.162Z,47.17
2023-04-22T11:14:56.288Z,47.41
2023-04-22T11:19:08.133Z,48.75
2023-04-22T11:23:22.408Z,49.29
2023-04-22T11:27:33.910Z,50.80
2023-04-22T11:31:49.190Z,51.80
2023-04-22T11:36:01.237Z,52.57
2023-04-22T11:40:29.358Z,53.12
2023-04-22T11:44:44.930Z,53.78
2023-04-22T11:49:17.265Z,54.42
2023-04-22T11:53:28.764Z,54.73
2023-04-22T11:57:40.880Z,55.12
2023-04-22T12:01:52.409Z,55.44
2023-04-22T12:06:04.993Z,55.97
2023-04-22T12:10:16.545Z,58.32
2023-04-22T12:14:32.031Z,58.47
2023-04-22T12:18:54.548Z,59.60
2023-04-22T12:23:11.355Z,60.73
2023-04-22T12:27:22.831Z,62.63
2023-04-22T12:31:34.627Z,62.73
2023-04-22T12:35:47.072Z,64.62
2023-04-22T12:39:58.696Z,63.06
2023-04-22T12:44:10.254Z,63.34
2023-04-22T12:48:21.774Z,58.82
2023-04-22T12:52:34.893Z,57.90
2023-04-22T12:56:47.306Z,56.94
2023-04-22T13:00:58.802Z,57.10
2023-04-22T13:05:11.096Z,54.73
2023-04-22T13:09:24.521Z,55.06
2023-04-22T13:13:36.194Z,52.73
2023-04-22T13:17:50.300Z,51.33
2023-04-22T13:22:03.412Z,50.47
2023-04-22T13:26:14.950Z,49.70
2023-04-22T13:30:26.447Z,49.15
2023-04-22T13:34:41.511Z,49.73
2023-04-22T13:38:53.013Z,50.87
2023-04-22T13:43:04.557Z,51.23
2023-04-22T13:47:16.557Z,51.37
2023-04-22T13:51:28.080Z,50.29
2023-04-22T13:55:40.051Z,50.48
2023-04-22T13:59:51.616Z,50.12
2023-04-22T14:04:03.455Z,49.73
2023-04-22T14:08:15.095Z,49.34
2023-04-22T14:12:26.604Z,48.05
2023-04-22T14:16:38.158Z,49.71
2023-04-22T14:20:51.404Z,50.54
2023-04-22T14:25:03.300Z,50.44
2023-04-22T14:29:14.973Z,50.71
2023-04-22T14:33:27.110Z,51.22
2023-04-22T14:37:40.955Z,51.01
2023-04-22T14:41:52.469Z,52.08
2023-04-22T14:46:04.148Z,52.55
2023-04-22T14:50:15.721Z,53.00
2023-04-22T14:54:27.902Z,52.70
2023-04-22T14:58:39.415Z,53.18
2023-04-22T15:02:51.133Z,53.29
2023-04-22T15:07:02.994Z,53.62
2023-04-22T15:11:14.517Z,52.41
2023-04-22T15:15:26.357Z,51.94
2023-04-22T15:19:37.901Z,52.48
2023-04-22T15:23:49.470Z,52.11
2023-04-22T15:28:01.045Z,52.76
2023-04-22T15:32:12.888Z,52.95
2023-04-22T15:36:24.413Z,53.80
2023-04-22T15:40:35.945Z,54.97
2023-04-22T15:44:47.435Z,56.73
2023-04-22T15:49:03.139Z,58.87
2023-04-22T15:53:14.627Z,60.26
2023-04-22T15:57:26.134Z,63.23
2023-04-22T16:01:39.648Z,64.87
2023-04-22T16:05:52.057Z,64.57
2023-04-22T16:10:03.805Z,65.36
2023-04-22T16:14:15.585Z,66.53
2023-04-22T16:18:27.472Z,66.89
2023-04-22T16:22:39.024Z,67.90
2023-04-22T16:26:50.834Z,68.59
2023-04-22T16:31:02.455Z,69.62
2023-04-22T16:35:14.031Z,72.48
2023-04-22T16:39:25.512Z,73.89
2023-04-22T16:43:40.273Z,76.58
2023-04-22T16:47:52.467Z,77.96
2023-04-22T16:52:03.973Z,79.54
2023-04-22T16:56:15.505Z,81.95
2023-04-22T17:00:27.019Z,83.56
2023-04-22T17:04:38.608Z,85.18
2023-04-22T17:08:51.322Z,87.87
2023-04-22T17:13:03.386Z,89.69
2023-04-22T17:17:14.915Z,92.39
2023-04-22T17:21:27.095Z,92.79
2023-04-22T17:25:38.806Z,95.99
2023-04-22T17:29:50.344Z,97.35
2023-04-22T17:34:02.349Z,98.75
2023-04-22T17:38:14.358Z,98.43
2023-04-22T17:42:38.760Z,98.65
2023-04-22T17:46:56.743Z,99.60
2023-04-22T17:51:08.599Z,100.00
2023-04-22T17:55:20.416Z,100.00
2023-04-22T17:59:31.909Z,100.00
2023-04-22T18:03:43.693Z,100.00
2023-04-22T18:08:02.217Z,100.00
2023-04-22T18:12:13.739Z,100.00
2023-04-22T18:16:25.608Z,100.00
2023-04-22T18:20:37.268Z,100.00
2023-04-22T18:24:49.097Z,100.00
2023-04-22T18:29:00.588Z,100.00
2023-04-22T18:33:12.116Z,100.00
2023-04-22T18:37:24.661Z,100.00
2023-04-22T18:41:38.464Z,100.00
2023-04-22T18:45:50.682Z,100.00
2023-04-22T18:50:02.350Z,100.00
2023-04-22T18:54:13.840Z,100.00
2023-04-22T18:58:25.731Z,100.00
2023-04-22T19:02:39.781Z,100.00
2023-04-22T19:06:53.221Z,100.00
2023-04-22T19:11:05.271Z,100.00
2023-04-22T19:15:19.285Z,100.00
2023-04-22T19:19:30.825Z,100.00
2023-04-22T19:23:42.282Z,100.00
2023-04-22T19:27:53.945Z,100.00
2023-04-22T19:32:05.531Z,100.00
2023-04-22T19:36:17.076Z,100.00
2023-04-22T19:40:29.197Z,100.00
2023-04-22T19:44:48.177Z,100.00
2023-04-22T19:48:59.937Z,100.00
2023-04-22T19:53:11.942Z,100.00
2023-04-22T19:57:24.020Z,100.00
2023-04-22T20:01:36.024Z,100.00
2023-04-22T20:05:48.681Z,100.00
2023-04-22T20:10:05.030Z,100.00
2023-04-22T20:14:17.992Z,100.00
2023-04-22T20:18:29.598Z,100.00
2023-04-22T20:22:42.607Z,100.00
2023-04-22T20:26:54.778Z,100.00
2023-04-22T20:31:06.792Z,100.00
2023-04-22T20:35:18.540Z,100.00
2023-04-22T20:39:30.533Z,100.00
2023-04-22T20:43:44.944Z,100.00
2023-04-22T20:47:58.246Z,100.00
2023-04-22T20:52:11.283Z,100.00
2023-04-22T20:56:23.014Z,100.00
2023-04-22T21:00:34.693Z,100.00
2023-04-22T21:04:46.826Z,100.00
2023-04-22T21:08:58.621Z,100.00
2023-04-22T21:13:10.321Z,100.00
2023-04-22T21:17:27.939Z,100.00
2023-04-22T21:21:42.440Z,100.00
2023-04-22T21:25:55.602Z,100.00
